Westjet B738 at Toronto on Oct 1st 2019, runway excursion on landing

Last Update: November 5, 2019 / 20:43:30 GMT/Zulu time

Bookmark this article
Incident Facts

Date of incident
Oct 1, 2019

Classification
Incident

Flight number
WS-1229

Destination
Toronto, Canada

Aircraft Registration
C-FWSE

Aircraft Type
Boeing 737-800

ICAO Type Designator
B738

Airport ICAO Code
CYYZ

A Westjet Boeing 737-800, registration C-FWSE performing flight WS-1229 from Orlando,FL (USA) to Toronto,ON (Canada) with 165 passengers and 6 crew, landed on Toronto's runway 24R at 16:25L (20:25Z) when the aircraft drifted significantly to the left of the centerline. The aircraft taxied to the apron.

The Canadian TSB reported that after arrival at the gate damage to the left hand outboard main tyre and the lower anti skid wiring conduit of the left hand gear was found. A runway inspection the following day revealed a left runway edge light about half way down the runway was missing, the light was subsequently found in the grass about 30 feet from its installed location. Convective weather and reduced visibility due to heavy rainfall were observed at the time of the landing. The left hand main tyre and the anti-skid conduit were replaced.

The occurrence aircraft returned to service about 20.5 hours after landing.



Metars:
CYYZ 012200Z 20009KT 10SM FEW010 FEW050CB FEW060 BKN100 BKN130 22/21 A2986 RMK SF1CB1SC1AC3AC2 SF TR SLP111 DENSITY ALT 1600FT=
CYYZ 012139Z 21010G17KT 10SM FEW010 FEW050CB SCT060 BKN110 22/21 A2986 RMK SF1CB1SC3AC3 SF TR CB E SLP114 DENSITY ALT 1600FT=
CYYZ 012100Z CCA 19011KT 180V280 8SM -SHRA FEW050CB BKN060 BKN100 22/22 A2985 RMK CB1SC4AC2 CB E /R12/ SLP109 DENSITY ALT 1700FT=
CYYZ 012049Z 20006KT 160V290 4SM -SHRA BR SCT050CB BKN060 OVC080 22/21 A2985 RMK CB3SC3AC2 PRESFR SLP110 DENSITY ALT 1600FT=
CYYZ 012042Z 28009KT 240V030 3SM R24R/5500VP6000FT/U -SHDZRA BR BKN050CB OVC068 22/21 A2987 RMK CB5AC3 SLP117 DENSITY ALT 1600FT=
CYYZ 012030Z 30010G26KT 2SM R33L/5000VP6000FT/D R33R/3500VP6000FT/D R24R/3500VP6000FT/D -TSRA BR OVC028CB 22/21 A2988 RMK FG2CB6 PRESRR SLP119 DENSITY ALT 1600FT=
CYYZ 012024Z 29020KT 1/2SM R33L/P6000FT/D R33R/P6000FT/D R24R/P6000FT/N R23/P6000FT/D +TSRA VV007 24/22 A2989 RMK RA8 CB ALL QUADS PRESRR SLP121 DENSITY ALT 1800FT=
CYYZ 012019Z 31020KT 2SM TSRA BR OVC047CB 24/22 A2986 RMK FG2CB6 LTGCG SLP111 DENSITY ALT 1900FT=
CYYZ 012000Z 30019G24KT 3SM -TSRA BR OVC045CB 26/22 A2985 RMK CB8 LTGCG SLP109 DENSITY ALT 2100FT=
CYYZ 011946Z 25007KT 8SM -TSRA BKN050CB OVC070 29/20 A2984 RMK CB7AC1 TS S-W SLP105 DENSITY ALT 2400FT=
CYYZ 011937Z 24005KT 10SM -RA BKN051 BKN070 29/20 A2983 RMK SC7AC1 AC TR VSB W 6 SLP103 DENSITY ALT 2400FT=
CYYZ 011900Z 25008G15KT 210V270 15SM BKN050 BKN070 30/20 A2983 RMK SC6AC1 SLP103 DENSITY ALT 2500FT=
CYYZ 011800Z 21015G23KT 15SM FEW050TCU BKN055 BKN070 31/20 A2985 RMK TCU2CU3AC2 TCU W-N SLP106 DENSITY ALT 2700FT=
CYYZ 011730Z 24008G17KT 10SM SCT051 BKN100 BKN220 31/20 A2986 RMK CU4AC1CI1 SLP113 DENSITY ALT 2600FT=
CYYZ 011700Z 24012G20KT 190V250 15SM FEW040 SCT180 BKN220 BKN250 31/20 A2986 RMK CF1AC3CI2CI1 CF TR SLP110 DENSITY ALT 2600FT=
Aircraft Registration Data
Registration mark
C-FWSE
Country of Registration
Canada
Date of Registration
CdhqkjAgdqqnbn Subscribe to unlock
Certification Basis
QcipebcAjdiAndfpfidkAfmighledAiqdjkkjce f epAe Subscribe to unlock
TCDS Ident. No.
Manufacturer
Boeing
Aircraft Model / Type
737-8CT
ICAO Aircraft Type
B738
Year of Manufacture
Serial Number
Aircraft Address / Mode S Code (HEX)
Maximum Take off Mass (MTOM) [kg]
Engine Count
Engine Type
Main Owner
Deechelidgdgbjbljjfjmpphqgkf ikpcjlkjikmjbj lilgkggdmccji pk Subscribe to unlock

Aircraft registration data reproduced and distributed with the permission of the Government of Canada.

Incident Facts

Date of incident
Oct 1, 2019

Classification
Incident

Flight number
WS-1229

Destination
Toronto, Canada

Aircraft Registration
C-FWSE

Aircraft Type
Boeing 737-800

ICAO Type Designator
B738

Airport ICAO Code
CYYZ

This article is published under license from Avherald.com. © of text by Avherald.com.
Article source

You can read 2 more free articles without a subscription.

Subscribe now and continue reading without any limits!

Are you a subscriber? Login
Subscribe

Read unlimited articles and receive our daily update briefing. Gain better insights into what is happening in commercial aviation safety.

Free newsletter

Want to know more and stay ahead? Get our free weekly newsletter and join 5377 existing subscribers.

By subscribing, you accept our terms and conditions and confirm that you've read our privacy policy.

Send tip

Support AeroInside by sending a small tip amount.

Related articles

Newest articles

Subscribe today

Are you researching aviation incidents? Get access to AeroInside Insights, unlimited read access and receive the daily newsletter.

Pick your plan and subscribe

Partner

Blockaviation logo

A new way to document and demonstrate airworthiness compliance and aircraft value. Find out more.

Virtual Speech logo

ELITE Simulation Solutions is a leading global provider of Flight Simulation Training Devices, IFR training software as well as flight controls and related services. Find out more.

Get updates

Never miss an article from AeroInside. Subscribe to our free weekly newsletter and join 5377 existing subscribers.

By subscribing, you accept our terms and conditions and that you've read our privacy policy.

AeroInside Blog
Popular aircraft
Airbus A320
Boeing 737-800
Boeing 737-800 MAX
Popular airlines
American Airlines
United
Delta
Air Canada
Lufthansa
British Airways